sensor_id;sensor_type;location;lat;lon;timestamp;P1;durP1;ratioP1;P2;durP2;ratioP2
73632;SDS011;61927;50.080;14.418;2022-12-18T00:01:01;81.22;;;35.13;;
73632;SDS011;61927;50.080;14.418;2022-12-18T00:03:42;83.97;;;36.97;;
73632;SDS011;61927;50.080;14.418;2022-12-18T00:06:07;84.00;;;33.60;;
73632;SDS011;61927;50.080;14.418;2022-12-18T00:08:34;85.78;;;35.88;;
73632;SDS011;61927;50.080;14.418;2022-12-18T00:11:04;84.80;;;37.63;;
73632;SDS011;61927;50.080;14.418;2022-12-18T00:13:34;85.05;;;34.75;;
73632;SDS011;61927;50.080;14.418;2022-12-18T00:16:01;79.68;;;34.35;;
73632;SDS011;61927;50.080;14.418;2022-12-18T00:18:28;92.18;;;35.28;;
73632;SDS011;61927;50.080;14.418;2022-12-18T00:20:54;87.28;;;36.55;;
73632;SDS011;61927;50.080;14.418;2022-12-18T00:23:24;86.43;;;36.55;;
73632;SDS011;61927;50.080;14.418;2022-12-18T00:25:49;88.00;;;33.70;;
73632;SDS011;61927;50.080;14.418;2022-12-18T00:28:15;89.57;;;34.22;;
73632;SDS011;61927;50.080;14.418;2022-12-18T00:30:40;88.15;;;34.95;;
73632;SDS011;61927;50.080;14.418;2022-12-18T00:33:06;84.85;;;34.65;;
73632;SDS011;61927;50.080;14.418;2022-12-18T00:35:31;97.28;;;38.40;;
73632;SDS011;61927;50.080;14.418;2022-12-18T00:37:57;91.10;;;35.17;;
73632;SDS011;61927;50.080;14.418;2022-12-18T00:40:22;89.85;;;35.92;;
73632;SDS011;61927;50.080;14.418;2022-12-18T00:42:48;97.45;;;37.28;;
73632;SDS011;61927;50.080;14.418;2022-12-18T00:45:23;99.43;;;36.55;;
73632;SDS011;61927;50.080;14.418;2022-12-18T00:47:53;102.22;;;36.63;;
73632;SDS011;61927;50.080;14.418;2022-12-18T00:50:19;105.93;;;37.58;;
73632;SDS011;61927;50.080;14.418;2022-12-18T00:52:45;102.53;;;39.17;;
73632;SDS011;61927;50.080;14.418;2022-12-18T00:55:11;99.07;;;37.67;;
73632;SDS011;61927;50.080;14.418;2022-12-18T00:57:37;99.65;;;37.97;;
73632;SDS011;61927;50.080;14.418;2022-12-18T01:00:03;93.07;;;38.47;;
73632;SDS011;61927;50.080;14.418;2022-12-18T01:02:30;95.80;;;39.50;;
73632;SDS011;61927;50.080;14.418;2022-12-18T01:04:56;102.15;;;39.53;;
73632;SDS011;61927;50.080;14.418;2022-12-18T01:07:22;85.50;;;36.08;;
73632;SDS011;61927;50.080;14.418;2022-12-18T01:09:48;93.07;;;37.45;;
73632;SDS011;61927;50.080;14.418;2022-12-18T01:12:13;84.30;;;36.60;;
73632;SDS011;61927;50.080;14.418;2022-12-18T01:14:39;93.30;;;37.05;;
73632;SDS011;61927;50.080;14.418;2022-12-18T01:17:04;101.50;;;36.10;;
73632;SDS011;61927;50.080;14.418;2022-12-18T01:19:30;93.63;;;37.83;;
73632;SDS011;61927;50.080;14.418;2022-12-18T01:21:55;95.13;;;35.75;;
73632;SDS011;61927;50.080;14.418;2022-12-18T01:24:21;86.50;;;33.92;;
73632;SDS011;61927;50.080;14.418;2022-12-18T01:26:46;96.97;;;37.65;;
73632;SDS011;61927;50.080;14.418;2022-12-18T01:29:12;91.13;;;35.13;;
73632;SDS011;61927;50.080;14.418;2022-12-18T01:31:37;96.28;;;36.65;;
73632;SDS011;61927;50.080;14.418;2022-12-18T01:34:04;92.88;;;36.13;;
73632;SDS011;61927;50.080;14.418;2022-12-18T01:36:31;94.10;;;36.17;;
73632;SDS011;61927;50.080;14.418;2022-12-18T01:38:59;89.20;;;35.72;;
73632;SDS011;61927;50.080;14.418;2022-12-18T01:41:27;92.82;;;35.92;;
73632;SDS011;61927;50.080;14.418;2022-12-18T01:47:56;92.65;;;34.45;;
73632;SDS011;61927;50.080;14.418;2022-12-18T01:52:50;103.03;;;38.13;;
73632;SDS011;61927;50.080;14.418;2022-12-18T01:55:19;94.00;;;38.38;;
73632;SDS011;61927;50.080;14.418;2022-12-18T01:57:47;91.65;;;35.25;;
73632;SDS011;61927;50.080;14.418;2022-12-18T02:00:15;100.28;;;36.92;;
73632;SDS011;61927;50.080;14.418;2022-12-18T02:02:44;92.97;;;35.60;;
73632;SDS011;61927;50.080;14.418;2022-12-18T02:05:11;90.45;;;35.20;;
73632;SDS011;61927;50.080;14.418;2022-12-18T02:07:44;98.40;;;35.97;;
73632;SDS011;61927;50.080;14.418;2022-12-18T02:10:29;105.93;;;37.63;;
73632;SDS011;61927;50.080;14.418;2022-12-18T02:15:27;89.05;;;33.72;;
73632;SDS011;61927;50.080;14.418;2022-12-18T02:18:01;89.53;;;35.72;;
73632;SDS011;61927;50.080;14.418;2022-12-18T02:31:26;82.65;;;33.42;;
73632;SDS011;61927;50.080;14.418;2022-12-18T02:33:57;86.32;;;34.17;;
73632;SDS011;61927;50.080;14.418;2022-12-18T02:36:26;82.68;;;34.47;;
73632;SDS011;61927;50.080;14.418;2022-12-18T02:38:54;81.43;;;33.65;;
73632;SDS011;61927;50.080;14.418;2022-12-18T02:41:21;89.80;;;35.13;;
73632;SDS011;61927;50.080;14.418;2022-12-18T02:43:53;82.85;;;34.55;;
73632;SDS011;61927;50.080;14.418;2022-12-18T02:49:04;91.00;;;36.30;;
73632;SDS011;61927;50.080;14.418;2022-12-18T02:57:24;89.03;;;34.78;;
73632;SDS011;61927;50.080;14.418;2022-12-18T03:05:53;87.13;;;35.30;;
73632;SDS011;61927;50.080;14.418;2022-12-18T03:08:36;88.60;;;33.95;;
73632;SDS011;61927;50.080;14.418;2022-12-18T03:11:05;84.45;;;34.17;;
73632;SDS011;61927;50.080;14.418;2022-12-18T03:13:44;87.88;;;35.15;;
73632;SDS011;61927;50.080;14.418;2022-12-18T03:16:18;83.88;;;34.40;;
73632;SDS011;61927;50.080;14.418;2022-12-18T03:18:51;87.63;;;34.13;;
73632;SDS011;61927;50.080;14.418;2022-12-18T03:21:23;90.90;;;34.67;;
73632;SDS011;61927;50.080;14.418;2022-12-18T03:23:54;85.72;;;35.90;;
73632;SDS011;61927;50.080;14.418;2022-12-18T03:26:22;88.72;;;35.20;;
73632;SDS011;61927;50.080;14.418;2022-12-18T03:28:51;74.75;;;31.75;;
73632;SDS011;61927;50.080;14.418;2022-12-18T03:31:22;83.95;;;33.90;;
73632;SDS011;61927;50.080;14.418;2022-12-18T03:33:53;81.72;;;33.92;;
73632;SDS011;61927;50.080;14.418;2022-12-18T03:36:20;78.60;;;32.67;;
73632;SDS011;61927;50.080;14.418;2022-12-18T03:38:46;87.45;;;33.10;;
73632;SDS011;61927;50.080;14.418;2022-12-18T03:41:17;73.18;;;31.40;;
73632;SDS011;61927;50.080;14.418;2022-12-18T03:43:52;77.90;;;31.92;;
73632;SDS011;61927;50.080;14.418;2022-12-18T03:46:53;70.75;;;30.35;;
73632;SDS011;61927;50.080;14.418;2022-12-18T03:49:32;81.93;;;33.53;;
73632;SDS011;61927;50.080;14.418;2022-12-18T03:52:11;84.85;;;34.05;;
73632;SDS011;61927;50.080;14.418;2022-12-18T03:54:38;80.28;;;31.67;;
73632;SDS011;61927;50.080;14.418;2022-12-18T03:57:08;75.03;;;31.17;;
73632;SDS011;61927;50.080;14.418;2022-12-18T03:59:37;81.22;;;31.33;;
73632;SDS011;61927;50.080;14.418;2022-12-18T04:02:04;88.85;;;32.33;;
73632;SDS011;61927;50.080;14.418;2022-12-18T04:04:34;83.80;;;32.58;;
73632;SDS011;61927;50.080;14.418;2022-12-18T04:07:03;76.97;;;32.85;;
73632;SDS011;61927;50.080;14.418;2022-12-18T04:09:31;76.30;;;29.33;;
73632;SDS011;61927;50.080;14.418;2022-12-18T04:11:58;79.18;;;30.48;;
73632;SDS011;61927;50.080;14.418;2022-12-18T04:14:24;77.90;;;30.10;;
73632;SDS011;61927;50.080;14.418;2022-12-18T04:16:49;80.70;;;31.60;;
73632;SDS011;61927;50.080;14.418;2022-12-18T04:19:15;77.10;;;30.77;;
73632;SDS011;61927;50.080;14.418;2022-12-18T04:21:41;66.07;;;29.83;;
73632;SDS011;61927;50.080;14.418;2022-12-18T04:24:06;73.07;;;30.70;;
73632;SDS011;61927;50.080;14.418;2022-12-18T04:26:32;82.68;;;31.45;;
73632;SDS011;61927;50.080;14.418;2022-12-18T04:28:57;75.50;;;29.92;;
73632;SDS011;61927;50.080;14.418;2022-12-18T04:31:23;82.22;;;30.67;;
73632;SDS011;61927;50.080;14.418;2022-12-18T04:33:48;81.63;;;30.75;;
73632;SDS011;61927;50.080;14.418;2022-12-18T04:36:14;76.72;;;30.98;;
73632;SDS011;61927;50.080;14.418;2022-12-18T04:38:40;68.68;;;28.65;;
73632;SDS011;61927;50.080;14.418;2022-12-18T04:41:05;68.28;;;29.27;;
73632;SDS011;61927;50.080;14.418;2022-12-18T04:43:31;82.43;;;31.38;;
73632;SDS011;61927;50.080;14.418;2022-12-18T04:46:04;68.55;;;29.25;;
73632;SDS011;61927;50.080;14.418;2022-12-18T04:48:31;71.47;;;30.05;;
73632;SDS011;61927;50.080;14.418;2022-12-18T04:50:57;76.78;;;31.60;;
73632;SDS011;61927;50.080;14.418;2022-12-18T04:53:23;87.38;;;31.40;;
73632;SDS011;61927;50.080;14.418;2022-12-18T04:55:48;76.53;;;28.98;;
73632;SDS011;61927;50.080;14.418;2022-12-18T04:58:14;78.95;;;31.33;;
73632;SDS011;61927;50.080;14.418;2022-12-18T05:00:40;70.45;;;29.42;;
73632;SDS011;61927;50.080;14.418;2022-12-18T05:03:05;80.38;;;30.20;;
73632;SDS011;61927;50.080;14.418;2022-12-18T05:05:31;69.47;;;29.15;;
73632;SDS011;61927;50.080;14.418;2022-12-18T05:07:56;71.78;;;29.70;;
73632;SDS011;61927;50.080;14.418;2022-12-18T05:10:22;69.53;;;27.55;;
73632;SDS011;61927;50.080;14.418;2022-12-18T05:12:47;69.00;;;27.50;;
73632;SDS011;61927;50.080;14.418;2022-12-18T05:15:28;70.68;;;28.77;;
73632;SDS011;61927;50.080;14.418;2022-12-18T05:17:55;68.88;;;27.75;;
73632;SDS011;61927;50.080;14.418;2022-12-18T05:20:22;59.08;;;27.02;;
73632;SDS011;61927;50.080;14.418;2022-12-18T05:22:47;68.55;;;26.88;;
73632;SDS011;61927;50.080;14.418;2022-12-18T05:25:13;64.50;;;24.83;;
73632;SDS011;61927;50.080;14.418;2022-12-18T05:27:39;54.72;;;26.23;;
73632;SDS011;61927;50.080;14.418;2022-12-18T05:30:04;63.47;;;26.40;;
73632;SDS011;61927;50.080;14.418;2022-12-18T05:32:30;59.78;;;25.17;;
73632;SDS011;61927;50.080;14.418;2022-12-18T05:34:56;52.92;;;24.00;;
73632;SDS011;61927;50.080;14.418;2022-12-18T05:37:22;65.45;;;25.38;;
73632;SDS011;61927;50.080;14.418;2022-12-18T05:39:48;61.60;;;27.45;;
73632;SDS011;61927;50.080;14.418;2022-12-18T05:42:13;56.05;;;24.23;;
73632;SDS011;61927;50.080;14.418;2022-12-18T05:44:39;63.60;;;24.83;;
73632;SDS011;61927;50.080;14.418;2022-12-18T05:47:05;60.55;;;25.00;;
73632;SDS011;61927;50.080;14.418;2022-12-18T05:49:30;63.50;;;25.25;;
73632;SDS011;61927;50.080;14.418;2022-12-18T05:51:56;68.53;;;26.75;;
73632;SDS011;61927;50.080;14.418;2022-12-18T05:54:21;58.17;;;23.83;;
73632;SDS011;61927;50.080;14.418;2022-12-18T05:56:47;58.25;;;22.63;;
73632;SDS011;61927;50.080;14.418;2022-12-18T05:59:13;51.53;;;21.85;;
73632;SDS011;61927;50.080;14.418;2022-12-18T06:01:38;53.97;;;22.40;;
73632;SDS011;61927;50.080;14.418;2022-12-18T06:04:04;53.58;;;23.00;;
73632;SDS011;61927;50.080;14.418;2022-12-18T06:06:30;51.58;;;21.33;;
73632;SDS011;61927;50.080;14.418;2022-12-18T06:08:55;43.75;;;21.25;;
73632;SDS011;61927;50.080;14.418;2022-12-18T06:11:22;47.75;;;19.80;;
73632;SDS011;61927;50.080;14.418;2022-12-18T06:13:50;48.40;;;21.00;;
73632;SDS011;61927;50.080;14.418;2022-12-18T06:16:16;46.38;;;19.15;;
73632;SDS011;61927;50.080;14.418;2022-12-18T06:18:42;42.45;;;16.92;;
73632;SDS011;61927;50.080;14.418;2022-12-18T06:21:08;43.03;;;20.60;;
73632;SDS011;61927;50.080;14.418;2022-12-18T06:23:33;50.78;;;19.05;;
73632;SDS011;61927;50.080;14.418;2022-12-18T06:26:02;38.78;;;17.17;;
73632;SDS011;61927;50.080;14.418;2022-12-18T06:28:31;41.45;;;17.00;;
73632;SDS011;61927;50.080;14.418;2022-12-18T06:30:57;40.00;;;17.63;;
73632;SDS011;61927;50.080;14.418;2022-12-18T06:33:25;44.42;;;18.45;;
73632;SDS011;61927;50.080;14.418;2022-12-18T06:35:52;41.33;;;19.02;;
73632;SDS011;61927;50.080;14.418;2022-12-18T06:38:17;44.95;;;18.52;;
73632;SDS011;61927;50.080;14.418;2022-12-18T06:40:43;44.17;;;19.35;;
73632;SDS011;61927;50.080;14.418;2022-12-18T06:43:08;45.15;;;19.60;;
73632;SDS011;61927;50.080;14.418;2022-12-18T06:45:34;51.10;;;17.98;;
73632;SDS011;61927;50.080;14.418;2022-12-18T06:48:00;51.70;;;19.83;;
73632;SDS011;61927;50.080;14.418;2022-12-18T06:50:25;44.85;;;17.90;;
73632;SDS011;61927;50.080;14.418;2022-12-18T06:52:51;51.00;;;17.20;;
73632;SDS011;61927;50.080;14.418;2022-12-18T06:55:17;48.35;;;17.80;;
73632;SDS011;61927;50.080;14.418;2022-12-18T06:57:42;46.05;;;17.65;;
73632;SDS011;61927;50.080;14.418;2022-12-18T07:00:08;47.20;;;18.55;;
73632;SDS011;61927;50.080;14.418;2022-12-18T07:02:34;41.63;;;17.30;;
73632;SDS011;61927;50.080;14.418;2022-12-18T07:05:01;51.13;;;19.25;;
73632;SDS011;61927;50.080;14.418;2022-12-18T07:07:26;56.03;;;18.63;;
73632;SDS011;61927;50.080;14.418;2022-12-18T07:09:52;45.85;;;18.42;;
73632;SDS011;61927;50.080;14.418;2022-12-18T07:12:17;46.17;;;18.13;;
73632;SDS011;61927;50.080;14.418;2022-12-18T07:14:43;48.83;;;18.13;;
73632;SDS011;61927;50.080;14.418;2022-12-18T07:17:09;44.20;;;18.48;;
73632;SDS011;61927;50.080;14.418;2022-12-18T07:19:34;47.38;;;18.55;;
73632;SDS011;61927;50.080;14.418;2022-12-18T07:22:00;47.55;;;18.20;;
73632;SDS011;61927;50.080;14.418;2022-12-18T07:24:26;45.13;;;15.57;;
73632;SDS011;61927;50.080;14.418;2022-12-18T07:26:51;37.45;;;15.30;;
73632;SDS011;61927;50.080;14.418;2022-12-18T07:29:17;43.65;;;16.65;;
73632;SDS011;61927;50.080;14.418;2022-12-18T07:31:42;41.50;;;15.93;;
73632;SDS011;61927;50.080;14.418;2022-12-18T07:34:12;42.03;;;15.50;;
73632;SDS011;61927;50.080;14.418;2022-12-18T07:36:38;45.15;;;16.33;;
73632;SDS011;61927;50.080;14.418;2022-12-18T07:39:04;33.00;;;14.25;;
73632;SDS011;61927;50.080;14.418;2022-12-18T07:41:29;34.58;;;13.98;;
73632;SDS011;61927;50.080;14.418;2022-12-18T07:43:55;33.75;;;13.57;;
73632;SDS011;61927;50.080;14.418;2022-12-18T07:46:20;30.70;;;12.35;;
73632;SDS011;61927;50.080;14.418;2022-12-18T07:48:46;23.95;;;11.80;;
73632;SDS011;61927;50.080;14.418;2022-12-18T07:51:12;37.17;;;15.00;;
73632;SDS011;61927;50.080;14.418;2022-12-18T07:53:38;36.45;;;13.68;;
73632;SDS011;61927;50.080;14.418;2022-12-18T07:56:04;29.38;;;12.98;;
73632;SDS011;61927;50.080;14.418;2022-12-18T07:58:32;33.83;;;13.73;;
73632;SDS011;61927;50.080;14.418;2022-12-18T08:01:05;38.75;;;14.48;;
73632;SDS011;61927;50.080;14.418;2022-12-18T08:03:33;31.98;;;13.70;;
73632;SDS011;61927;50.080;14.418;2022-12-18T08:05:59;33.08;;;12.95;;
73632;SDS011;61927;50.080;14.418;2022-12-18T08:08:29;30.23;;;12.45;;
73632;SDS011;61927;50.080;14.418;2022-12-18T08:10:55;35.30;;;13.73;;
73632;SDS011;61927;50.080;14.418;2022-12-18T08:13:23;25.63;;;11.68;;
73632;SDS011;61927;50.080;14.418;2022-12-18T08:15:59;25.13;;;11.48;;
73632;SDS011;61927;50.080;14.418;2022-12-18T08:18:29;32.92;;;14.15;;
73632;SDS011;61927;50.080;14.418;2022-12-18T08:23:35;40.30;;;14.43;;
73632;SDS011;61927;50.080;14.418;2022-12-18T08:26:01;39.00;;;14.77;;
73632;SDS011;61927;50.080;14.418;2022-12-18T08:28:27;39.83;;;16.58;;
73632;SDS011;61927;50.080;14.418;2022-12-18T08:30:52;38.47;;;14.93;;
73632;SDS011;61927;50.080;14.418;2022-12-18T08:33:18;35.58;;;14.50;;
73632;SDS011;61927;50.080;14.418;2022-12-18T08:35:43;31.92;;;14.63;;
73632;SDS011;61927;50.080;14.418;2022-12-18T08:38:09;28.77;;;12.85;;
73632;SDS011;61927;50.080;14.418;2022-12-18T08:40:34;31.80;;;14.85;;
73632;SDS011;61927;50.080;14.418;2022-12-18T08:43:00;32.67;;;13.48;;
73632;SDS011;61927;50.080;14.418;2022-12-18T08:45:44;27.60;;;12.13;;
73632;SDS011;61927;50.080;14.418;2022-12-18T08:48:09;24.67;;;10.50;;
73632;SDS011;61927;50.080;14.418;2022-12-18T08:50:35;19.45;;;10.15;;
73632;SDS011;61927;50.080;14.418;2022-12-18T08:53:01;19.00;;;9.43;;
73632;SDS011;61927;50.080;14.418;2022-12-18T08:55:27;20.50;;;9.88;;
73632;SDS011;61927;50.080;14.418;2022-12-18T08:57:52;24.35;;;11.35;;
73632;SDS011;61927;50.080;14.418;2022-12-18T09:00:18;23.70;;;9.52;;
73632;SDS011;61927;50.080;14.418;2022-12-18T09:02:43;27.35;;;10.90;;
73632;SDS011;61927;50.080;14.418;2022-12-18T09:05:09;21.15;;;10.27;;
73632;SDS011;61927;50.080;14.418;2022-12-18T09:07:35;26.45;;;10.63;;
73632;SDS011;61927;50.080;14.418;2022-12-18T09:10:00;21.33;;;10.07;;
73632;SDS011;61927;50.080;14.418;2022-12-18T09:12:26;31.20;;;11.95;;
73632;SDS011;61927;50.080;14.418;2022-12-18T09:14:51;24.35;;;11.57;;
73632;SDS011;61927;50.080;14.418;2022-12-18T09:17:17;28.52;;;11.50;;
73632;SDS011;61927;50.080;14.418;2022-12-18T09:19:43;28.75;;;11.88;;
73632;SDS011;61927;50.080;14.418;2022-12-18T09:22:09;28.38;;;12.07;;
73632;SDS011;61927;50.080;14.418;2022-12-18T09:24:35;39.15;;;17.13;;
73632;SDS011;61927;50.080;14.418;2022-12-18T09:27:00;31.83;;;13.90;;
73632;SDS011;61927;50.080;14.418;2022-12-18T09:29:26;30.30;;;13.32;;
73632;SDS011;61927;50.080;14.418;2022-12-18T09:31:52;35.78;;;14.40;;
73632;SDS011;61927;50.080;14.418;2022-12-18T09:34:17;34.50;;;14.07;;
73632;SDS011;61927;50.080;14.418;2022-12-18T09:36:43;31.02;;;13.40;;
73632;SDS011;61927;50.080;14.418;2022-12-18T09:39:09;35.03;;;14.52;;
73632;SDS011;61927;50.080;14.418;2022-12-18T09:49:24;30.95;;;13.30;;
73632;SDS011;61927;50.080;14.418;2022-12-18T09:54:26;29.33;;;13.25;;
73632;SDS011;61927;50.080;14.418;2022-12-18T09:56:58;27.48;;;12.88;;
73632;SDS011;61927;50.080;14.418;2022-12-18T09:59:26;28.25;;;13.27;;
73632;SDS011;61927;50.080;14.418;2022-12-18T10:01:57;26.38;;;13.43;;
73632;SDS011;61927;50.080;14.418;2022-12-18T10:04:23;33.38;;;14.70;;
73632;SDS011;61927;50.080;14.418;2022-12-18T10:06:55;26.45;;;12.55;;
73632;SDS011;61927;50.080;14.418;2022-12-18T10:14:29;29.63;;;12.82;;
73632;SDS011;61927;50.080;14.418;2022-12-18T10:22:58;30.58;;;13.30;;
73632;SDS011;61927;50.080;14.418;2022-12-18T10:25:45;29.02;;;12.80;;
73632;SDS011;61927;50.080;14.418;2022-12-18T10:28:29;30.73;;;12.85;;
73632;SDS011;61927;50.080;14.418;2022-12-18T10:30:56;30.27;;;13.60;;
73632;SDS011;61927;50.080;14.418;2022-12-18T10:33:24;29.42;;;12.43;;
73632;SDS011;61927;50.080;14.418;2022-12-18T10:35:54;30.08;;;13.40;;
73632;SDS011;61927;50.080;14.418;2022-12-18T10:38:21;30.10;;;13.30;;
73632;SDS011;61927;50.080;14.418;2022-12-18T10:43:34;31.63;;;13.95;;
73632;SDS011;61927;50.080;14.418;2022-12-18T10:48:34;41.60;;;20.35;;
73632;SDS011;61927;50.080;14.418;2022-12-18T10:51:05;29.45;;;12.85;;
73632;SDS011;61927;50.080;14.418;2022-12-18T10:53:33;33.45;;;13.07;;
73632;SDS011;61927;50.080;14.418;2022-12-18T10:56:02;32.50;;;14.02;;
73632;SDS011;61927;50.080;14.418;2022-12-18T10:58:33;30.58;;;14.07;;
73632;SDS011;61927;50.080;14.418;2022-12-18T11:03:44;34.35;;;13.50;;
73632;SDS011;61927;50.080;14.418;2022-12-18T11:06:33;33.45;;;13.02;;
73632;SDS011;61927;50.080;14.418;2022-12-18T11:09:03;30.80;;;13.27;;
73632;SDS011;61927;50.080;14.418;2022-12-18T11:11:48;30.38;;;13.32;;
73632;SDS011;61927;50.080;14.418;2022-12-18T11:14:24;28.70;;;12.77;;
73632;SDS011;61927;50.080;14.418;2022-12-18T11:16:50;33.67;;;14.13;;
73632;SDS011;61927;50.080;14.418;2022-12-18T11:19:29;37.72;;;17.30;;
73632;SDS011;61927;50.080;14.418;2022-12-18T11:21:56;36.95;;;15.90;;
73632;SDS011;61927;50.080;14.418;2022-12-18T11:26:54;30.83;;;14.32;;
73632;SDS011;61927;50.080;14.418;2022-12-18T11:29:24;29.45;;;13.38;;
73632;SDS011;61927;50.080;14.418;2022-12-18T11:32:09;28.50;;;12.75;;
73632;SDS011;61927;50.080;14.418;2022-12-18T11:34:45;28.63;;;13.90;;
73632;SDS011;61927;50.080;14.418;2022-12-18T11:37:14;31.48;;;15.15;;
73632;SDS011;61927;50.080;14.418;2022-12-18T11:39:52;31.92;;;13.27;;
73632;SDS011;61927;50.080;14.418;2022-12-18T11:45:35;27.95;;;13.38;;
73632;SDS011;61927;50.080;14.418;2022-12-18T11:50:50;32.55;;;15.07;;
73632;SDS011;61927;50.080;14.418;2022-12-18T11:53:16;37.55;;;15.30;;
73632;SDS011;61927;50.080;14.418;2022-12-18T11:58:38;30.10;;;13.38;;
73632;SDS011;61927;50.080;14.418;2022-12-18T12:03:59;34.63;;;14.80;;
73632;SDS011;61927;50.080;14.418;2022-12-18T12:09:24;33.80;;;14.90;;
73632;SDS011;61927;50.080;14.418;2022-12-18T12:17:42;35.65;;;15.82;;
73632;SDS011;61927;50.080;14.418;2022-12-18T12:22:56;37.97;;;14.07;;
73632;SDS011;61927;50.080;14.418;2022-12-18T12:25:48;31.60;;;14.85;;
73632;SDS011;61927;50.080;14.418;2022-12-18T12:31:01;36.70;;;15.45;;
73632;SDS011;61927;50.080;14.418;2022-12-18T12:34:06;35.72;;;15.98;;
73632;SDS011;61927;50.080;14.418;2022-12-18T12:39:34;35.05;;;14.70;;
73632;SDS011;61927;50.080;14.418;2022-12-18T12:42:04;36.90;;;15.93;;
73632;SDS011;61927;50.080;14.418;2022-12-18T12:44:54;41.10;;;15.95;;
73632;SDS011;61927;50.080;14.418;2022-12-18T12:47:26;36.42;;;16.20;;
73632;SDS011;61927;50.080;14.418;2022-12-18T12:55:05;41.53;;;16.65;;
73632;SDS011;61927;50.080;14.418;2022-12-18T12:57:40;42.10;;;18.88;;
73632;SDS011;61927;50.080;14.418;2022-12-18T13:00:14;42.00;;;17.23;;
73632;SDS011;61927;50.080;14.418;2022-12-18T13:05:38;40.80;;;17.20;;
73632;SDS011;61927;50.080;14.418;2022-12-18T13:08:08;39.95;;;17.23;;
73632;SDS011;61927;50.080;14.418;2022-12-18T13:10:39;41.00;;;17.15;;
73632;SDS011;61927;50.080;14.418;2022-12-18T13:13:11;45.28;;;17.75;;
73632;SDS011;61927;50.080;14.418;2022-12-18T13:15:42;43.78;;;17.63;;
73632;SDS011;61927;50.080;14.418;2022-12-18T13:20:36;38.85;;;17.58;;
73632;SDS011;61927;50.080;14.418;2022-12-18T13:23:27;36.55;;;17.17;;
73632;SDS011;61927;50.080;14.418;2022-12-18T13:28:23;43.30;;;19.35;;
73632;SDS011;61927;50.080;14.418;2022-12-18T13:30:58;38.65;;;17.40;;
73632;SDS011;61927;50.080;14.418;2022-12-18T13:36:09;49.72;;;20.70;;
73632;SDS011;61927;50.080;14.418;2022-12-18T13:38:40;41.20;;;20.02;;
73632;SDS011;61927;50.080;14.418;2022-12-18T13:43:42;45.67;;;20.05;;
73632;SDS011;61927;50.080;14.418;2022-12-18T13:48:52;47.85;;;21.50;;
73632;SDS011;61927;50.080;14.418;2022-12-18T13:51:20;39.40;;;17.63;;
73632;SDS011;61927;50.080;14.418;2022-12-18T13:56:25;46.33;;;17.98;;
73632;SDS011;61927;50.080;14.418;2022-12-18T13:59:05;44.50;;;18.05;;
73632;SDS011;61927;50.080;14.418;2022-12-18T14:01:41;45.15;;;16.23;;
73632;SDS011;61927;50.080;14.418;2022-12-18T14:04:11;32.75;;;16.02;;
73632;SDS011;61927;50.080;14.418;2022-12-18T14:06:43;37.60;;;15.00;;
73632;SDS011;61927;50.080;14.418;2022-12-18T14:09:18;35.13;;;14.30;;
73632;SDS011;61927;50.080;14.418;2022-12-18T14:11:49;37.72;;;15.55;;
73632;SDS011;61927;50.080;14.418;2022-12-18T14:14:16;36.47;;;15.90;;
73632;SDS011;61927;50.080;14.418;2022-12-18T14:16:43;39.25;;;16.15;;
73632;SDS011;61927;50.080;14.418;2022-12-18T14:19:14;29.48;;;13.38;;
73632;SDS011;61927;50.080;14.418;2022-12-18T14:21:46;36.20;;;13.45;;
73632;SDS011;61927;50.080;14.418;2022-12-18T14:24:14;34.13;;;15.15;;
73632;SDS011;61927;50.080;14.418;2022-12-18T14:26:42;35.42;;;14.90;;
73632;SDS011;61927;50.080;14.418;2022-12-18T14:29:25;41.88;;;16.63;;
73632;SDS011;61927;50.080;14.418;2022-12-18T14:32:09;44.47;;;16.67;;
73632;SDS011;61927;50.080;14.418;2022-12-18T14:34:37;31.58;;;15.13;;
73632;SDS011;61927;50.080;14.418;2022-12-18T14:37:03;37.78;;;16.08;;
73632;SDS011;61927;50.080;14.418;2022-12-18T14:39:29;34.08;;;14.73;;
73632;SDS011;61927;50.080;14.418;2022-12-18T14:41:54;35.08;;;14.15;;
73632;SDS011;61927;50.080;14.418;2022-12-18T14:44:20;40.33;;;16.65;;
73632;SDS011;61927;50.080;14.418;2022-12-18T14:46:46;44.35;;;18.83;;
73632;SDS011;61927;50.080;14.418;2022-12-18T14:51:59;43.17;;;17.10;;
73632;SDS011;61927;50.080;14.418;2022-12-18T14:54:27;40.28;;;16.35;;
73632;SDS011;61927;50.080;14.418;2022-12-18T14:56:59;67.35;;;29.63;;
73632;SDS011;61927;50.080;14.418;2022-12-18T14:59:27;35.80;;;15.68;;
73632;SDS011;61927;50.080;14.418;2022-12-18T15:04:38;42.15;;;16.98;;
73632;SDS011;61927;50.080;14.418;2022-12-18T15:07:11;35.45;;;14.27;;
73632;SDS011;61927;50.080;14.418;2022-12-18T15:09:38;33.72;;;13.65;;
73632;SDS011;61927;50.080;14.418;2022-12-18T15:12:17;37.65;;;14.25;;
73632;SDS011;61927;50.080;14.418;2022-12-18T15:15:01;38.17;;;15.98;;
73632;SDS011;61927;50.080;14.418;2022-12-18T15:17:27;38.35;;;15.13;;
73632;SDS011;61927;50.080;14.418;2022-12-18T15:19:53;32.13;;;14.43;;
73632;SDS011;61927;50.080;14.418;2022-12-18T15:22:26;36.90;;;15.82;;
73632;SDS011;61927;50.080;14.418;2022-12-18T15:24:54;37.95;;;16.20;;
73632;SDS011;61927;50.080;14.418;2022-12-18T15:27:31;33.35;;;15.65;;
73632;SDS011;61927;50.080;14.418;2022-12-18T15:32:33;39.72;;;17.02;;
73632;SDS011;61927;50.080;14.418;2022-12-18T15:37:33;43.55;;;18.60;;
73632;SDS011;61927;50.080;14.418;2022-12-18T15:39:59;31.88;;;16.88;;
73632;SDS011;61927;50.080;14.418;2022-12-18T15:42:24;37.83;;;16.25;;
73632;SDS011;61927;50.080;14.418;2022-12-18T15:45:13;39.25;;;16.55;;
73632;SDS011;61927;50.080;14.418;2022-12-18T15:47:39;41.13;;;17.52;;
73632;SDS011;61927;50.080;14.418;2022-12-18T15:50:07;35.08;;;16.42;;
73632;SDS011;61927;50.080;14.418;2022-12-18T15:52:37;36.53;;;15.88;;
73632;SDS011;61927;50.080;14.418;2022-12-18T15:55:15;41.28;;;16.75;;
73632;SDS011;61927;50.080;14.418;2022-12-18T15:58:01;40.80;;;18.52;;
73632;SDS011;61927;50.080;14.418;2022-12-18T16:00:26;43.20;;;17.67;;
73632;SDS011;61927;50.080;14.418;2022-12-18T16:02:52;38.50;;;16.60;;
73632;SDS011;61927;50.080;14.418;2022-12-18T16:05:24;50.83;;;21.33;;
73632;SDS011;61927;50.080;14.418;2022-12-18T16:07:50;45.42;;;19.33;;
73632;SDS011;61927;50.080;14.418;2022-12-18T16:10:16;38.13;;;16.83;;
73632;SDS011;61927;50.080;14.418;2022-12-18T16:12:42;37.70;;;16.65;;
73632;SDS011;61927;50.080;14.418;2022-12-18T16:15:10;35.05;;;16.05;;
73632;SDS011;61927;50.080;14.418;2022-12-18T16:17:39;45.97;;;18.83;;
73632;SDS011;61927;50.080;14.418;2022-12-18T16:20:06;41.55;;;17.73;;
73632;SDS011;61927;50.080;14.418;2022-12-18T16:22:37;46.72;;;18.75;;
73632;SDS011;61927;50.080;14.418;2022-12-18T16:25:03;38.30;;;18.00;;
73632;SDS011;61927;50.080;14.418;2022-12-18T16:27:30;32.63;;;16.40;;
73632;SDS011;61927;50.080;14.418;2022-12-18T16:29:55;47.72;;;18.50;;